aviador You're here:

KCGS Decoded Metar

COLLEGE PARK in MD, USA
Report Time2017-05-26 12:53:00
UTC Time2017-05-26 13:03:17
Flight Rules vfr VFR
Wind260° at 05 Gusting to 14 kt
W.Decomp.*RWY 33: 2.6 kt HW 4.3 kt LCW
W.Rank260° ranks 22
Current wind is below 260° avg. (5.5)
Visibility9999 m
Phenomena:N/A
Clouds:Scattered 095 Hf
Expected CloudBase > 2,800 ft AGL from Temp-Dew spread
CeilingNone
Temp20°C (ISA +5)
Dew Point13°C (64% RH)
AAT19.1°C
QNH1006 hPa
Density Alt1,083 ft
Elevation49 ft
Report Wrong Elevation
Raw Report
KCGS 261253Z AUTO 26005G14KT 10SM SCT095 20/13 A2972 RMK AO1
T01950134=

Extra information for KCGS:More info

Metar Taf Metar & Taf Last 4 Metars F.Rules Stats Wind Profile Meteogram Temp Stats Airport Information Weather charts Add Link Nearby VenuesMetar ALERT Operation Metar Decoded Social comments

AIRNAV info for KCGS